createdAt,value
2023-03-26T00:02:32.476Z,82.77
2023-03-26T00:07:35.660Z,83.16
2023-03-26T00:12:51.867Z,81.84
2023-03-26T00:18:04.746Z,81.12
2023-03-26T00:23:10.234Z,81.21
2023-03-26T00:28:17.312Z,82.02
2023-03-26T00:33:21.993Z,81.86
2023-03-26T00:38:37.606Z,82.23
2023-03-26T01:27:36.540Z,81.92
2023-03-26T01:33:02.420Z,81.53
2023-03-26T01:38:24.191Z,81.45
2023-03-26T01:43:41.017Z,82.13
2023-03-26T01:49:11.652Z,81.63
2023-03-26T04:40:10.878Z,80.42
2023-03-26T04:45:23.744Z,80.34
2023-03-26T04:50:32.030Z,80.16
2023-03-26T04:55:44.271Z,79.86
2023-03-26T07:41:04.112Z,77.27
2023-03-26T07:47:15.898Z,73.63
2023-03-26T07:51:49.455Z,71.21
2023-03-26T07:57:04.243Z,71.04
2023-03-26T08:02:37.690Z,73.42
2023-03-26T08:08:19.022Z,74.37
2023-03-26T08:13:38.112Z,74.63
2023-03-26T09:20:40.306Z,55.59
2023-03-26T09:26:00.405Z,56.04
2023-03-26T09:31:45.469Z,48.72
2023-03-26T09:37:24.947Z,49.50
2023-03-26T09:43:07.005Z,52.33
2023-03-26T10:51:50.171Z,52.58
2023-03-26T10:56:57.563Z,53.18
2023-03-26T11:02:30.353Z,52.67
2023-03-26T11:07:49.768Z,53.28
2023-03-26T12:24:31.922Z,33.91
2023-03-26T13:28:27.638Z,35.71
2023-03-26T13:33:43.369Z,35.58
2023-03-26T13:39:04.196Z,36.42
2023-03-26T13:44:21.093Z,35.74
2023-03-26T13:49:41.242Z,35.67
2023-03-26T13:54:50.976Z,33.81
2023-03-26T14:00:02.238Z,36.67
2023-03-26T14:05:16.778Z,36.57
2023-03-26T14:10:32.968Z,36.25
2023-03-26T14:15:43.711Z,35.38
2023-03-26T14:21:14.280Z,37.05
2023-03-26T14:27:02.999Z,37.99
2023-03-26T14:32:32.001Z,38.05
2023-03-26T14:37:53.781Z,37.64
2023-03-26T14:43:21.373Z,40.11
2023-03-26T14:48:59.075Z,39.56
2023-03-26T14:54:06.960Z,40.81
2023-03-26T15:00:02.263Z,39.88
2023-03-26T15:05:49.661Z,39.37
2023-03-26T15:11:20.608Z,38.97
2023-03-26T15:16:52.078Z,40.82
2023-03-26T15:22:31.704Z,40.01
2023-03-26T15:28:22.934Z,41.18
2023-03-26T16:36:43.775Z,41.86
2023-03-26T16:42:11.513Z,41.33
2023-03-26T16:47:24.165Z,41.38
2023-03-26T16:52:48.143Z,40.61
2023-03-26T16:57:57.608Z,41.37
2023-03-26T17:03:26.289Z,43.36
2023-03-26T17:09:48.113Z,43.42
2023-03-26T17:46:03.215Z,44.83
2023-03-26T17:51:23.778Z,44.77
2023-03-26T17:56:46.457Z,45.13
2023-03-26T18:02:07.909Z,47.31
2023-03-26T18:07:36.106Z,47.19
2023-03-26T18:13:18.844Z,50.48
2023-03-26T18:18:31.344Z,50.72
2023-03-26T18:23:45.247Z,52.30
2023-03-26T18:28:53.067Z,52.78
2023-03-26T18:34:08.778Z,53.21
2023-03-26T18:39:13.918Z,54.68
2023-03-26T18:44:20.866Z,54.94
2023-03-26T18:49:34.817Z,56.77
2023-03-26T18:54:39.912Z,56.11
2023-03-26T18:59:45.672Z,56.11
2023-03-26T19:04:55.549Z,55.88
2023-03-26T19:10:14.121Z,57.71
2023-03-26T19:15:20.010Z,59.34
2023-03-26T19:20:28.050Z,58.65
2023-03-26T19:25:45.345Z,59.53
2023-03-26T19:30:53.060Z,60.37
2023-03-26T19:36:23.342Z,61.23
2023-03-26T19:41:33.736Z,61.33
2023-03-26T19:46:54.480Z,62.56
2023-03-26T19:52:22.025Z,62.98
2023-03-26T19:57:47.609Z,62.78
2023-03-26T20:02:52.831Z,63.66
2023-03-26T20:08:00.371Z,63.87
2023-03-26T20:13:07.449Z,63.90
2023-03-26T20:18:13.717Z,64.80
2023-03-26T20:23:20.087Z,64.85
2023-03-26T20:28:30.455Z,65.05
2023-03-26T20:33:39.267Z,64.86
2023-03-26T20:38:46.655Z,65.25
2023-03-26T20:44:02.052Z,65.49
2023-03-26T20:49:11.111Z,65.84
2023-03-26T20:54:26.096Z,66.38
2023-03-26T20:59:31.189Z,66.30
2023-03-26T21:44:19.430Z,68.01
2023-03-26T21:49:25.891Z,68.31
2023-03-26T21:54:32.588Z,67.61
2023-03-26T21:59:54.222Z,67.44
2023-03-26T22:05:16.704Z,67.20
2023-03-26T22:10:20.084Z,68.28
2023-03-26T22:15:26.843Z,68.34
2023-03-26T22:20:35.316Z,68.21
2023-03-26T22:25:44.461Z,68.04
2023-03-26T22:30:53.674Z,68.00
2023-03-26T22:36:23.477Z,68.63
2023-03-26T23:20:15.027Z,69.18
